Time;durP1;ratioP1;P1;durP2;ratioP2;P2;SDS_P1;SDS_P2;PMS_P1;PMS_P2;Temp;Humidity;BMP_temperature;BMP_pressure;BME280_temperature;BME280_humidity;BME280_pressure;Samples;Min_cycle;Max_cycle;Signal;HPM_P1;HPM_P2
2023/12/11 00:01:06;;;;;;;60.00;7.82;;;;;;;;;;5019162;28;98434;-61
2023/12/11 00:03:33;;;;;;;64.65;8.80;;;;;;;;;;5022415;28;99708;-64
2023/12/11 00:05:59;;;;;;;62.65;9.05;;;;;;;;;;5019554;27;99467;-63
2023/12/11 00:08:26;;;;;;;43.08;6.20;;;;;;;;;;5019397;28;98687;-63
2023/12/11 00:10:52;;;;;;;65.72;8.05;;;;;;;;;;5019897;27;99070;-63
2023/12/11 00:13:19;;;;;;;66.45;9.32;;;;;;;;;;5016351;27;99824;-63
2023/12/11 00:15:45;;;;;;;55.42;8.75;;;;;;;;;;5017707;28;98565;-63
2023/12/11 00:18:11;;;;;;;69.60;8.77;;;;;;;;;;5020878;27;99246;-63
2023/12/11 00:20:38;;;;;;;68.15;8.35;;;;;;;;;;5019830;28;98102;-63
2023/12/11 00:23:04;;;;;;;60.75;8.43;;;;;;;;;;5019718;28;98618;-63
2023/12/11 00:25:35;;;;;;;66.53;8.27;;;;;;;;;;5018187;28;99311;-64
2023/12/11 00:28:01;;;;;;;58.15;9.32;;;;;;;;;;5017250;27;99313;-63
2023/12/11 00:30:28;;;;;;;53.85;9.23;;;;;;;;;;5020433;28;99926;-63
2023/12/11 00:32:54;;;;;;;66.75;9.75;;;;;;;;;;5017734;28;99472;-64
2023/12/11 00:35:20;;;;;;;63.58;8.18;;;;;;;;;;5017956;28;98563;-64
2023/12/11 00:37:47;;;;;;;77.43;8.85;;;;;;;;;;5018938;28;100379;-63
2023/12/11 00:40:13;;;;;;;65.68;10.57;;;;;;;;;;5016511;27;99276;-62
2023/12/11 00:42:40;;;;;;;65.45;10.05;;;;;;;;;;5012017;28;99335;-63
2023/12/11 00:45:06;;;;;;;66.10;8.85;;;;;;;;;;5016368;28;99764;-63
2023/12/11 00:47:33;;;;;;;59.15;8.05;;;;;;;;;;5018113;28;98664;-63
2023/12/11 00:50:00;;;;;;;58.55;7.90;;;;;;;;;;5020456;28;100162;-63
2023/12/11 00:52:30;;;;;;;58.13;8.85;;;;;;;;;;5018170;28;101255;-64
2023/12/11 00:54:57;;;;;;;58.67;9.63;;;;;;;;;;5013020;28;98666;-63
2023/12/11 00:57:23;;;;;;;70.20;8.93;;;;;;;;;;5016100;28;99132;-63
2023/12/11 00:59:49;;;;;;;53.50;7.85;;;;;;;;;;5023262;27;99473;-63
2023/12/11 01:02:17;;;;;;;54.45;8.02;;;;;;;;;;5014423;27;99322;-63
2023/12/11 01:04:44;;;;;;;62.38;9.13;;;;;;;;;;5017433;28;100016;-64
2023/12/11 01:07:11;;;;;;;61.58;8.88;;;;;;;;;;5014978;28;98541;-63
2023/12/11 01:09:37;;;;;;;68.53;8.80;;;;;;;;;;5019858;27;99285;-63
2023/12/11 01:12:04;;;;;;;69.95;7.95;;;;;;;;;;5017046;28;100570;-63
2023/12/11 01:14:31;;;;;;;65.05;10.30;;;;;;;;;;5013903;27;98492;-64
2023/12/11 01:16:57;;;;;;;67.63;10.43;;;;;;;;;;5017063;27;100559;-62
2023/12/11 01:19:43;;;;;;;60.55;7.32;;;;;;;;;;5016705;28;99086;-64
2023/12/11 01:22:10;;;;;;;64.57;8.27;;;;;;;;;;5021056;28;98520;-63
2023/12/11 01:24:36;;;;;;;55.22;7.35;;;;;;;;;;5015352;28;100463;-63
2023/12/11 01:27:03;;;;;;;50.88;7.25;;;;;;;;;;5018953;28;98802;-63
2023/12/11 01:29:29;;;;;;;62.17;9.20;;;;;;;;;;5016589;28;100300;-63
2023/12/11 01:31:57;;;;;;;52.00;7.22;;;;;;;;;;5020969;27;99466;-64
2023/12/11 01:34:23;;;;;;;63.42;9.23;;;;;;;;;;5014290;28;97778;-65
2023/12/11 01:36:50;;;;;;;56.65;8.57;;;;;;;;;;5015370;28;98859;-63
2023/12/11 01:39:16;;;;;;;56.75;7.63;;;;;;;;;;5016403;28;100034;-63
2023/12/11 01:41:42;;;;;;;55.78;7.88;;;;;;;;;;5006211;28;103376;-63
2023/12/11 01:44:09;;;;;;;50.13;6.85;;;;;;;;;;5021335;28;100087;-62
2023/12/11 01:46:36;;;;;;;58.33;7.75;;;;;;;;;;5014897;28;100149;-64
2023/12/11 01:49:02;;;;;;;60.63;9.40;;;;;;;;;;5013879;27;99320;-63
2023/12/11 01:51:29;;;;;;;64.68;8.23;;;;;;;;;;5016163;27;99475;-64
2023/12/11 01:53:56;;;;;;;60.53;8.55;;;;;;;;;;5015841;28;98461;-64
2023/12/11 01:56:22;;;;;;;57.55;7.32;;;;;;;;;;5011067;28;100224;-64
2023/12/11 01:58:49;;;;;;;53.10;8.27;;;;;;;;;;5011528;27;98683;-63
2023/12/11 02:01:16;;;;;;;51.85;7.03;;;;;;;;;;5016516;28;98508;-63
2023/12/11 02:03:42;;;;;;;72.05;9.45;;;;;;;;;;5018846;28;99162;-63
2023/12/11 02:06:09;;;;;;;55.65;7.75;;;;;;;;;;5017344;28;100370;-63
2023/12/11 02:08:35;;;;;;;47.67;7.20;;;;;;;;;;5018016;28;100216;-64
2023/12/11 02:11:03;;;;;;;45.58;6.85;;;;;;;;;;5015489;27;99406;-63
2023/12/11 02:13:29;;;;;;;50.60;7.40;;;;;;;;;;5018709;28;98787;-64
2023/12/11 02:15:56;;;;;;;56.47;8.23;;;;;;;;;;5012377;28;99212;-64
2023/12/11 02:18:22;;;;;;;50.53;6.60;;;;;;;;;;5014889;28;100496;-65
2023/12/11 02:20:49;;;;;;;64.22;8.95;;;;;;;;;;5013296;27;98542;-63
2023/12/11 02:23:34;;;;;;;50.20;6.80;;;;;;;;;;5014569;28;101741;-63
2023/12/11 02:26:20;;;;;;;49.88;6.68;;;;;;;;;;5013455;28;100441;-63
2023/12/11 02:28:47;;;;;;;54.95;7.88;;;;;;;;;;5014282;27;99052;-63
2023/12/11 02:31:13;;;;;;;53.65;6.85;;;;;;;;;;5014257;28;100038;-63
2023/12/11 02:33:40;;;;;;;56.30;6.35;;;;;;;;;;5014608;28;98498;-64
2023/12/11 02:36:07;;;;;;;49.35;6.55;;;;;;;;;;5017460;27;101033;-63
2023/12/11 02:38:33;;;;;;;51.47;8.80;;;;;;;;;;5015244;28;99607;-63
2023/12/11 02:41:00;;;;;;;61.70;7.88;;;;;;;;;;5015585;27;100857;-64
2023/12/11 02:43:26;;;;;;;47.72;7.05;;;;;;;;;;5016890;28;99194;-63
2023/12/11 02:45:53;;;;;;;56.08;6.75;;;;;;;;;;5021942;28;99466;-64
2023/12/11 02:48:19;;;;;;;52.20;6.93;;;;;;;;;;5016591;28;97869;-64
2023/12/11 02:50:46;;;;;;;46.70;6.28;;;;;;;;;;5018945;28;98495;-65
2023/12/11 02:53:12;;;;;;;48.50;6.47;;;;;;;;;;5016671;27;98505;-62
2023/12/11 02:55:38;;;;;;;44.10;6.45;;;;;;;;;;5013687;28;99459;-65
2023/12/11 02:58:05;;;;;;;40.45;5.60;;;;;;;;;;5018468;28;100507;-64
2023/12/11 03:00:31;;;;;;;38.97;5.30;;;;;;;;;;5021077;27;98532;-65
2023/12/11 03:02:58;;;;;;;34.33;5.28;;;;;;;;;;5020763;28;100521;-64
2023/12/11 03:05:24;;;;;;;55.92;7.38;;;;;;;;;;5020359;27;99728;-65
2023/12/11 03:07:51;;;;;;;52.67;6.05;;;;;;;;;;5019270;27;98887;-64
2023/12/11 03:10:17;;;;;;;39.22;6.28;;;;;;;;;;5021774;27;99184;-66
2023/12/11 03:12:43;;;;;;;44.45;6.00;;;;;;;;;;5015612;28;97779;-64
2023/12/11 03:15:10;;;;;;;42.47;6.05;;;;;;;;;;5018491;28;99521;-65
2023/12/11 03:17:36;;;;;;;48.38;6.10;;;;;;;;;;5018069;28;99862;-64
2023/12/11 03:20:05;;;;;;;46.78;6.55;;;;;;;;;;5016828;28;99329;-64
2023/12/11 03:22:31;;;;;;;47.53;6.35;;;;;;;;;;5018190;27;99831;-64
2023/12/11 03:24:58;;;;;;;58.00;7.78;;;;;;;;;;5022762;28;99482;-64
2023/12/11 03:27:24;;;;;;;59.63;7.93;;;;;;;;;;5018512;28;98632;-64
2023/12/11 03:29:51;;;;;;;57.40;8.60;;;;;;;;;;5017788;28;100238;-64
2023/12/11 03:32:17;;;;;;;51.47;6.80;;;;;;;;;;5019370;28;99652;-63
2023/12/11 03:34:43;;;;;;;66.07;8.85;;;;;;;;;;5018135;28;99113;-62
2023/12/11 03:37:10;;;;;;;53.00;6.13;;;;;;;;;;5018253;27;98906;-61
2023/12/11 03:39:36;;;;;;;57.55;8.82;;;;;;;;;;5016754;27;98686;-61
2023/12/11 03:42:03;;;;;;;52.03;6.82;;;;;;;;;;5019415;28;99278;-61
2023/12/11 03:44:29;;;;;;;51.50;7.05;;;;;;;;;;5019505;27;100152;-61
2023/12/11 03:46:57;;;;;;;52.63;6.35;;;;;;;;;;5017641;27;98610;-61
2023/12/11 03:49:24;;;;;;;50.60;7.38;;;;;;;;;;5015533;28;100247;-61
2023/12/11 03:51:51;;;;;;;51.92;7.20;;;;;;;;;;5017350;28;100436;-61
2023/12/11 03:54:17;;;;;;;62.50;8.35;;;;;;;;;;5018987;27;100508;-61
2023/12/11 03:56:43;;;;;;;47.03;5.30;;;;;;;;;;5015045;28;100618;-62
2023/12/11 03:59:11;;;;;;;46.40;6.18;;;;;;;;;;5018534;28;98576;-61
2023/12/11 04:01:38;;;;;;;48.42;6.60;;;;;;;;;;5016768;28;99243;-61
2023/12/11 04:04:04;;;;;;;45.97;6.70;;;;;;;;;;5018899;27;99654;-61
2023/12/11 04:06:31;;;;;;;48.97;6.20;;;;;;;;;;5016219;28;98483;-61
2023/12/11 04:08:57;;;;;;;56.88;6.75;;;;;;;;;;5016978;27;99112;-61
2023/12/11 04:11:24;;;;;;;44.25;5.90;;;;;;;;;;5014809;28;99985;-61
2023/12/11 04:13:50;;;;;;;54.55;7.07;;;;;;;;;;5015118;27;98503;-62
2023/12/11 04:16:16;;;;;;;46.22;6.10;;;;;;;;;;5020728;28;99093;-61
2023/12/11 04:18:43;;;;;;;45.17;6.78;;;;;;;;;;5019278;27;98963;-61
2023/12/11 04:21:09;;;;;;;41.42;5.53;;;;;;;;;;5020487;28;99143;-61
2023/12/11 04:23:36;;;;;;;50.13;6.97;;;;;;;;;;5019067;27;99474;-61
2023/12/11 04:26:03;;;;;;;51.65;6.10;;;;;;;;;;5020867;27;97981;-60
2023/12/11 04:28:29;;;;;;;50.80;7.13;;;;;;;;;;5012081;28;100117;-61
2023/12/11 04:30:55;;;;;;;42.10;6.97;;;;;;;;;;5018423;28;100441;-61
2023/12/11 04:33:22;;;;;;;51.00;7.00;;;;;;;;;;5017819;28;99305;-60
2023/12/11 04:35:49;;;;;;;52.13;7.75;;;;;;;;;;5018336;28;99961;-61
2023/12/11 04:38:15;;;;;;;56.47;7.78;;;;;;;;;;5023237;27;99618;-63
2023/12/11 04:40:41;;;;;;;49.33;6.43;;;;;;;;;;5014298;27;99149;-61
2023/12/11 04:43:08;;;;;;;46.38;7.00;;;;;;;;;;5015864;27;99472;-60
2023/12/11 04:45:34;;;;;;;59.97;7.25;;;;;;;;;;5021639;28;98471;-61
2023/12/11 04:48:01;;;;;;;55.95;6.85;;;;;;;;;;5013308;28;99227;-61
2023/12/11 04:50:28;;;;;;;54.22;7.43;;;;;;;;;;5014223;28;100045;-61
2023/12/11 04:52:54;;;;;;;55.47;6.63;;;;;;;;;;5008693;28;101777;-60
2023/12/11 04:55:20;;;;;;;44.45;7.25;;;;;;;;;;5019978;28;99187;-61
2023/12/11 04:57:47;;;;;;;63.15;7.05;;;;;;;;;;5011200;27;101188;-61
2023/12/11 05:00:15;;;;;;;52.03;7.30;;;;;;;;;;5019494;28;98807;-61
2023/12/11 05:02:42;;;;;;;41.85;6.40;;;;;;;;;;5013957;28;99553;-61
2023/12/11 05:05:09;;;;;;;55.65;7.50;;;;;;;;;;5017659;27;98585;-61
2023/12/11 05:07:36;;;;;;;53.17;6.35;;;;;;;;;;5017719;28;99445;-61
2023/12/11 05:10:03;;;;;;;70.40;7.20;;;;;;;;;;5019774;27;99489;-61
2023/12/11 05:12:29;;;;;;;52.92;7.38;;;;;;;;;;5015779;28;98649;-62
2023/12/11 05:14:55;;;;;;;57.67;8.50;;;;;;;;;;5016829;27;99658;-61
2023/12/11 05:17:22;;;;;;;49.55;6.95;;;;;;;;;;5016571;28;99442;-61
2023/12/11 05:19:48;;;;;;;65.45;7.50;;;;;;;;;;5022067;28;98728;-61
2023/12/11 05:22:15;;;;;;;54.55;7.25;;;;;;;;;;5015666;27;100251;-61
2023/12/11 05:24:41;;;;;;;45.75;6.85;;;;;;;;;;5016981;28;98619;-61
2023/12/11 05:27:10;;;;;;;45.03;5.65;;;;;;;;;;5020357;28;100240;-61
2023/12/11 05:29:37;;;;;;;46.45;6.47;;;;;;;;;;5014658;28;99449;-61
2023/12/11 05:32:04;;;;;;;62.22;8.43;;;;;;;;;;5018634;28;98684;-61
2023/12/11 05:34:30;;;;;;;55.88;6.63;;;;;;;;;;5017513;28;100231;-61
2023/12/11 05:36:57;;;;;;;44.00;6.45;;;;;;;;;;5015642;27;99747;-61
2023/12/11 05:39:23;;;;;;;63.00;8.20;;;;;;;;;;5016604;27;97806;-61
2023/12/11 05:41:50;;;;;;;55.55;7.03;;;;;;;;;;5017657;28;99795;-61
2023/12/11 05:44:16;;;;;;;53.75;6.45;;;;;;;;;;5018642;27;98505;-61
2023/12/11 05:46:42;;;;;;;46.17;5.55;;;;;;;;;;5013500;28;100926;-61
2023/12/11 05:49:10;;;;;;;50.60;5.97;;;;;;;;;;5010662;28;100729;-61
2023/12/11 05:51:36;;;;;;;45.95;7.13;;;;;;;;;;5018850;28;98598;-61
2023/12/11 05:54:03;;;;;;;41.67;5.13;;;;;;;;;;5020603;27;99214;-63
2023/12/11 05:56:30;;;;;;;44.45;7.30;;;;;;;;;;5018324;27;100445;-64
2023/12/11 05:58:56;;;;;;;56.63;7.07;;;;;;;;;;5017288;28;98845;-64
2023/12/11 06:01:25;;;;;;;58.92;7.45;;;;;;;;;;5016936;28;99138;-63
2023/12/11 06:03:51;;;;;;;53.33;6.32;;;;;;;;;;5019312;28;99079;-64
2023/12/11 06:06:17;;;;;;;46.58;6.93;;;;;;;;;;5013449;28;99579;-70
2023/12/11 06:08:44;;;;;;;42.10;5.07;;;;;;;;;;5015621;27;99555;-63
2023/12/11 06:11:10;;;;;;;48.97;7.05;;;;;;;;;;5011357;28;99358;-63
2023/12/11 06:13:37;;;;;;;36.55;5.80;;;;;;;;;;5017462;27;100035;-64
2023/12/11 06:16:04;;;;;;;41.25;5.47;;;;;;;;;;5015556;28;99461;-64
2023/12/11 06:18:31;;;;;;;37.45;5.32;;;;;;;;;;5017665;27;98615;-64
2023/12/11 06:20:58;;;;;;;45.30;6.47;;;;;;;;;;5020983;28;99209;-63
2023/12/11 06:23:28;;;;;;;36.20;5.80;;;;;;;;;;5019458;28;99682;-63
2023/12/11 06:25:56;;;;;;;36.65;5.22;;;;;;;;;;5021474;28;98569;-64
2023/12/11 06:28:22;;;;;;;52.03;6.40;;;;;;;;;;5017677;27;98867;-63
2023/12/11 06:30:49;;;;;;;33.75;5.07;;;;;;;;;;5019947;28;98537;-64
2023/12/11 06:33:15;;;;;;;36.70;5.22;;;;;;;;;;5020052;28;99733;-64
2023/12/11 06:35:41;;;;;;;42.75;5.53;;;;;;;;;;5017823;28;100175;-64
2023/12/11 06:38:08;;;;;;;49.70;6.45;;;;;;;;;;5020620;28;98598;-64
2023/12/11 06:40:34;;;;;;;34.28;6.03;;;;;;;;;;5014888;28;99044;-64
2023/12/11 06:43:00;;;;;;;31.45;4.82;;;;;;;;;;5020034;27;100568;-64
2023/12/11 06:45:27;;;;;;;37.83;5.15;;;;;;;;;;5015876;28;98710;-64
2023/12/11 06:47:57;;;;;;;34.70;5.13;;;;;;;;;;5020189;28;99443;-64
2023/12/11 06:50:23;;;;;;;38.75;5.15;;;;;;;;;;5019947;28;98517;-64
2023/12/11 06:52:50;;;;;;;31.10;4.50;;;;;;;;;;5017107;28;99161;-63
2023/12/11 06:55:16;;;;;;;27.80;4.38;;;;;;;;;;5017281;28;100526;-63
2023/12/11 06:57:43;;;;;;;38.60;4.90;;;;;;;;;;5017368;27;98841;-63
2023/12/11 07:00:10;;;;;;;29.45;4.05;;;;;;;;;;5014346;28;100400;-64
2023/12/11 07:02:36;;;;;;;30.95;4.28;;;;;;;;;;5017731;27;99456;-63
2023/12/11 07:05:03;;;;;;;26.67;4.15;;;;;;;;;;5014692;28;98603;-63
2023/12/11 07:07:30;;;;;;;36.38;4.40;;;;;;;;;;5019821;28;99093;-64
2023/12/11 07:10:03;;;;;;;32.78;3.70;;;;;;;;;;5017290;28;98542;-62
2023/12/11 07:12:30;;;;;;;40.50;6.50;;;;;;;;;;5010646;28;100359;-63
2023/12/11 07:14:56;;;;;;;26.77;4.07;;;;;;;;;;5020876;27;99463;-63
2023/12/11 07:17:23;;;;;;;28.60;4.07;;;;;;;;;;5019314;27;97810;-64
2023/12/11 07:19:49;;;;;;;29.00;3.83;;;;;;;;;;5020196;28;98667;-64
2023/12/11 07:22:16;;;;;;;38.90;7.95;;;;;;;;;;5013253;27;99515;-64
2023/12/11 07:24:42;;;;;;;24.23;3.45;;;;;;;;;;5013022;28;100519;-64
2023/12/11 07:27:09;;;;;;;33.03;4.82;;;;;;;;;;5015225;27;100931;-63
2023/12/11 07:29:35;;;;;;;20.17;3.67;;;;;;;;;;5018184;28;99510;-62
2023/12/11 07:32:02;;;;;;;37.45;4.75;;;;;;;;;;5016181;28;100217;-62
2023/12/11 07:34:29;;;;;;;20.95;3.20;;;;;;;;;;5018357;28;100548;-62
2023/12/11 07:36:56;;;;;;;20.85;8.45;;;;;;;;;;5018176;28;98509;-62
2023/12/11 07:39:22;;;;;;;24.30;4.15;;;;;;;;;;5018864;28;99271;-63
2023/12/11 07:41:49;;;;;;;20.23;2.97;;;;;;;;;;5015177;28;98639;-62
2023/12/11 07:44:15;;;;;;;21.33;4.40;;;;;;;;;;5017045;27;98735;-63
2023/12/11 07:46:41;;;;;;;22.42;3.25;;;;;;;;;;5016945;28;100289;-63
2023/12/11 07:49:08;;;;;;;21.83;3.15;;;;;;;;;;5020935;27;100173;-63
2023/12/11 07:51:35;;;;;;;18.45;2.90;;;;;;;;;;5018717;28;98766;-63
2023/12/11 07:54:02;;;;;;;15.25;3.38;;;;;;;;;;5017629;27;99519;-63
2023/12/11 07:56:29;;;;;;;19.80;2.50;;;;;;;;;;5014600;27;98536;-62
2023/12/11 07:58:56;;;;;;;18.33;3.60;;;;;;;;;;5018692;28;99345;-63
2023/12/11 08:01:22;;;;;;;15.45;3.28;;;;;;;;;;5013776;28;100859;-61
2023/12/11 08:03:49;;;;;;;23.88;3.53;;;;;;;;;;5016698;28;98747;-62
2023/12/11 08:06:16;;;;;;;17.55;2.92;;;;;;;;;;5019819;28;99173;-63
2023/12/11 08:08:45;;;;;;;24.98;3.13;;;;;;;;;;5021836;27;99540;-62
2023/12/11 08:11:16;;;;;;;13.32;2.63;;;;;;;;;;5018256;28;98569;-63
2023/12/11 08:13:42;;;;;;;18.73;2.88;;;;;;;;;;5020320;28;99336;-62
2023/12/11 08:16:09;;;;;;;25.58;4.22;;;;;;;;;;5018294;28;98525;-63
2023/12/11 08:18:36;;;;;;;15.95;2.28;;;;;;;;;;5016126;28;99176;-61
2023/12/11 08:21:03;;;;;;;13.32;2.25;;;;;;;;;;5020156;28;99673;-63
2023/12/11 08:23:30;;;;;;;17.73;2.40;;;;;;;;;;5017058;27;98732;-63
2023/12/11 08:25:56;;;;;;;20.60;2.88;;;;;;;;;;5018060;28;99019;-63
2023/12/11 08:28:23;;;;;;;14.65;2.88;;;;;;;;;;5016984;28;100490;-63
2023/12/11 08:30:49;;;;;;;16.27;3.53;;;;;;;;;;5007515;28;97822;-62
2023/12/11 08:33:16;;;;;;;19.40;3.13;;;;;;;;;;5013227;28;98677;-62
2023/12/11 08:35:42;;;;;;;26.75;3.08;;;;;;;;;;5020789;28;99728;-62
2023/12/11 08:38:09;;;;;;;18.17;3.47;;;;;;;;;;5021162;28;100219;-62
2023/12/11 08:40:36;;;;;;;24.90;3.45;;;;;;;;;;5011901;28;99508;-62
2023/12/11 08:43:03;;;;;;;14.98;2.83;;;;;;;;;;5018401;27;98943;-62
2023/12/11 08:45:29;;;;;;;20.10;2.88;;;;;;;;;;5018440;27;98585;-63
2023/12/11 08:47:56;;;;;;;17.42;3.35;;;;;;;;;;5013795;28;99512;-63
2023/12/11 08:50:22;;;;;;;14.85;2.00;;;;;;;;;;5013372;28;98590;-62
2023/12/11 08:52:49;;;;;;;9.48;2.42;;;;;;;;;;5017021;28;98987;-62
2023/12/11 08:55:15;;;;;;;14.98;2.65;;;;;;;;;;5013356;28;98792;-63
2023/12/11 08:57:43;;;;;;;15.15;2.50;;;;;;;;;;5020216;28;98837;-63
2023/12/11 09:00:10;;;;;;;9.82;2.22;;;;;;;;;;5013285;28;100822;-62
2023/12/11 09:02:36;;;;;;;15.50;2.63;;;;;;;;;;5015956;28;100158;-63
2023/12/11 09:05:03;;;;;;;15.25;2.53;;;;;;;;;;5012421;28;101023;-63
2023/12/11 09:07:30;;;;;;;12.88;2.47;;;;;;;;;;5019468;28;99487;-63
2023/12/11 09:09:56;;;;;;;15.35;2.35;;;;;;;;;;5014807;28;98445;-63
2023/12/11 09:12:23;;;;;;;12.27;2.65;;;;;;;;;;5014839;28;99145;-62
2023/12/11 09:14:59;;;;;;;13.75;2.53;;;;;;;;;;5017338;28;99515;-63
2023/12/11 09:17:26;;;;;;;16.38;2.53;;;;;;;;;;5020081;28;98553;-63
2023/12/11 09:19:53;;;;;;;17.95;2.72;;;;;;;;;;5017282;28;98732;-63
2023/12/11 09:22:22;;;;;;;52.45;20.73;;;;;;;;;;5019121;28;98595;-64
2023/12/11 09:24:48;;;;;;;14.85;3.30;;;;;;;;;;5016419;28;99175;-63
2023/12/11 09:27:15;;;;;;;22.83;5.85;;;;;;;;;;5016089;28;99224;-63
2023/12/11 09:29:41;;;;;;;18.65;3.63;;;;;;;;;;5018197;28;98622;-63
2023/12/11 09:32:07;;;;;;;22.23;3.90;;;;;;;;;;5017795;27;99163;-63
2023/12/11 09:34:34;;;;;;;22.08;3.25;;;;;;;;;;5017157;27;99472;-63
2023/12/11 09:37:01;;;;;;;29.92;3.90;;;;;;;;;;5019202;28;98954;-62
2023/12/11 09:39:27;;;;;;;20.08;3.55;;;;;;;;;;5021392;27;99137;-63
2023/12/11 09:41:54;;;;;;;25.27;4.75;;;;;;;;;;5014179;28;98903;-64
2023/12/11 09:44:21;;;;;;;15.52;3.17;;;;;;;;;;5018553;28;99210;-63
2023/12/11 09:46:54;;;;;;;49.97;15.45;;;;;;;;;;5014628;27;100739;-63
2023/12/11 09:49:21;;;;;;;20.38;3.83;;;;;;;;;;5018164;27;98853;-63
2023/12/11 09:51:48;;;;;;;23.15;4.18;;;;;;;;;;5021527;27;99748;-64
2023/12/11 09:54:14;;;;;;;18.40;3.30;;;;;;;;;;5017635;28;99440;-63
2023/12/11 09:56:42;;;;;;;22.73;3.35;;;;;;;;;;5016237;28;98664;-63
2023/12/11 09:59:10;;;;;;;21.95;4.97;;;;;;;;;;5019813;27;99155;-64
2023/12/11 10:01:37;;;;;;;16.25;4.25;;;;;;;;;;5029436;28;100514;-64
2023/12/11 10:04:06;;;;;;;27.45;3.80;;;;;;;;;;5020578;27;99160;-62
2023/12/11 10:06:32;;;;;;;29.90;4.10;;;;;;;;;;5022341;28;99650;-63
2023/12/11 10:08:59;;;;;;;22.13;3.80;;;;;;;;;;5019170;28;97788;-62
2023/12/11 10:11:26;;;;;;;20.08;3.72;;;;;;;;;;5018896;27;98453;-63
2023/12/11 10:13:52;;;;;;;19.63;3.42;;;;;;;;;;5022255;27;99525;-63
2023/12/11 10:16:29;;;;;;;20.80;3.83;;;;;;;;;;5013263;28;99226;-63
2023/12/11 10:18:56;;;;;;;24.88;3.65;;;;;;;;;;5016287;28;100537;-63
2023/12/11 10:21:24;;;;;;;27.75;4.32;;;;;;;;;;5020444;28;99673;-63
2023/12/11 10:24:01;;;;;;;23.42;3.85;;;;;;;;;;5024966;27;98557;-63
2023/12/11 10:26:27;;;;;;;24.05;3.58;;;;;;;;;;5016853;28;100994;-63
2023/12/11 10:28:54;;;;;;;27.33;4.05;;;;;;;;;;5018618;28;98612;-63
2023/12/11 10:31:20;;;;;;;27.38;3.97;;;;;;;;;;5022267;28;100426;-63
2023/12/11 10:33:50;;;;;;;22.30;3.25;;;;;;;;;;5015034;28;98846;-63
2023/12/11 10:36:17;;;;;;;;;;;;;;;;;;5017959;28;99003;-61
2023/12/11 10:38:43;;;;;;;19.27;3.38;;;;;;;;;;5020607;27;130146;-61
2023/12/11 10:41:24;;;;;;;18.95;3.33;;;;;;;;;;5020858;28;101219;-61
2023/12/11 10:43:50;;;;;;;20.30;3.50;;;;;;;;;;5016431;28;98599;-61
2023/12/11 10:46:37;;;;;;;24.60;3.90;;;;;;;;;;5020274;28;102075;-61
2023/12/11 10:49:04;;;;;;;25.02;3.13;;;;;;;;;;5019471;28;98937;-61
2023/12/11 10:51:32;;;;;;;20.10;2.95;;;;;;;;;;5021053;28;99323;-62
2023/12/11 10:53:58;;;;;;;25.88;3.67;;;;;;;;;;5019178;28;100450;-61
2023/12/11 10:56:25;;;;;;;14.82;2.58;;;;;;;;;;5018961;28;98682;-66
2023/12/11 10:58:52;;;;;;;16.92;3.85;;;;;;;;;;5020107;28;100323;-61
2023/12/11 11:01:18;;;;;;;22.63;3.28;;;;;;;;;;5019569;28;99533;-61
2023/12/11 11:03:45;;;;;;;20.65;3.78;;;;;;;;;;5018778;27;98508;-61
2023/12/11 11:06:12;;;;;;;30.25;3.95;;;;;;;;;;5018827;28;99947;-61
2023/12/11 11:08:55;;;;;;;25.02;3.55;;;;;;;;;;5020658;27;101406;-60
2023/12/11 11:11:24;;;;;;;20.52;3.65;;;;;;;;;;5012188;28;99188;-61
2023/12/11 11:14:09;;;;;;;26.88;4.15;;;;;;;;;;5018908;28;100890;-61
2023/12/11 11:16:55;;;;;;;17.90;2.63;;;;;;;;;;5014437;27;98539;-61
2023/12/11 11:19:22;;;;;;;13.75;2.63;;;;;;;;;;5016119;28;99465;-61
2023/12/11 11:22:00;;;;;;;16.65;2.58;;;;;;;;;;5017871;28;99829;-61
2023/12/11 11:24:27;;;;;;;25.92;2.55;;;;;;;;;;5011741;28;97892;-61
2023/12/11 11:26:54;;;;;;;12.98;2.03;;;;;;;;;;5016853;28;98493;-61
2023/12/11 11:29:42;;;;;;;10.73;2.13;;;;;;;;;;5022095;28;99456;-61
2023/12/11 11:32:09;;;;;;;14.35;2.85;;;;;;;;;;5015729;27;99679;-61
2023/12/11 11:34:43;;;;;;;10.52;1.80;;;;;;;;;;5013988;27;99381;-61
2023/12/11 11:37:14;;;;;;;13.70;3.08;;;;;;;;;;5018750;28;98511;-61
2023/12/11 11:39:57;;;;;;;9.30;1.70;;;;;;;;;;5022168;27;99139;-61
2023/12/11 11:42:36;;;;;;;21.70;2.88;;;;;;;;;;5016605;28;99533;-62
2023/12/11 11:45:03;;;;;;;14.77;2.58;;;;;;;;;;5011529;28;99657;-62
2023/12/11 11:47:31;;;;;;;11.85;2.20;;;;;;;;;;5019344;28;99159;-62
2023/12/11 11:50:05;;;;;;;18.27;2.85;;;;;;;;;;5016379;28;98806;-61
2023/12/11 11:52:31;;;;;;;17.70;2.40;;;;;;;;;;5023436;28;98977;-61
2023/12/11 11:55:14;;;;;;;13.77;2.25;;;;;;;;;;5017191;28;99350;-62
2023/12/11 11:57:41;;;;;;;10.65;1.67;;;;;;;;;;5017166;28;99452;-61
2023/12/11 12:00:08;;;;;;;10.18;2.55;;;;;;;;;;5018942;28;99834;-61
2023/12/11 12:02:34;;;;;;;12.65;1.80;;;;;;;;;;5017605;28;100636;-62
2023/12/11 12:05:07;;;;;;;13.10;2.05;;;;;;;;;;5015118;28;98945;-62
2023/12/11 12:07:39;;;;;;;9.60;2.30;;;;;;;;;;5015869;28;99312;-61
2023/12/11 12:10:06;;;;;;;13.07;2.05;;;;;;;;;;5012196;28;99560;-61
2023/12/11 12:12:33;;;;;;;19.85;3.75;;;;;;;;;;5020293;28;98599;-61
2023/12/11 12:15:04;;;;;;;19.98;3.45;;;;;;;;;;5020941;28;100389;-61
2023/12/11 12:17:30;;;;;;;19.58;3.58;;;;;;;;;;5020019;28;98668;-61
2023/12/11 12:19:58;;;;;;;14.27;2.95;;;;;;;;;;5019588;28;100738;-61
2023/12/11 12:22:26;;;;;;;19.50;3.17;;;;;;;;;;5016317;28;99408;-61
2023/12/11 12:24:52;;;;;;;17.23;3.38;;;;;;;;;;5018598;28;98602;-61
2023/12/11 12:27:22;;;;;;;17.95;2.72;;;;;;;;;;5017976;28;99193;-61
2023/12/11 12:29:49;;;;;;;16.55;2.55;;;;;;;;;;5013640;28;100606;-61
2023/12/11 12:32:15;;;;;;;9.07;2.38;;;;;;;;;;5022201;28;98600;-62
2023/12/11 12:34:46;;;;;;;14.25;2.30;;;;;;;;;;5017433;28;98860;-61
2023/12/11 12:37:12;;;;;;;;;;;;;;;;;;5019690;27;101787;-61
2023/12/11 12:39:38;;;;;;;9.02;2.25;;;;;;;;;;5019505;28;129606;-61
2023/12/11 12:42:05;;;;;;;11.52;2.22;;;;;;;;;;5015661;28;99411;-61
2023/12/11 12:44:37;;;;;;;13.35;2.20;;;;;;;;;;5021579;27;99166;-61
2023/12/11 12:47:04;;;;;;;19.02;3.03;;;;;;;;;;5018649;28;99325;-61
2023/12/11 12:49:31;;;;;;;10.30;2.70;;;;;;;;;;5027603;27;99582;-61
2023/12/11 12:51:57;;;;;;;11.45;2.13;;;;;;;;;;5017610;28;98531;-61
2023/12/11 12:54:24;;;;;;;11.55;2.33;;;;;;;;;;5020921;28;100161;-60
2023/12/11 12:56:55;;;;;;;19.15;3.05;;;;;;;;;;5017294;28;99497;-63
2023/12/11 12:59:23;;;;;;;11.35;1.80;;;;;;;;;;5021346;28;98532;-62
2023/12/11 13:01:49;;;;;;;18.30;2.63;;;;;;;;;;5010208;28;99557;-63
2023/12/11 13:04:16;;;;;;;13.80;2.30;;;;;;;;;;5017182;27;98014;-63
2023/12/11 13:06:45;;;;;;;18.73;2.70;;;;;;;;;;5017627;28;99716;-63
2023/12/11 13:09:27;;;;;;;13.55;2.50;;;;;;;;;;5014454;28;99592;-63
2023/12/11 13:11:53;;;;;;;13.07;2.97;;;;;;;;;;5013302;28;99243;-63
2023/12/11 13:14:20;;;;;;;13.27;2.38;;;;;;;;;;5010739;27;100026;-64
2023/12/11 13:16:47;;;;;;;14.65;1.95;;;;;;;;;;5016678;28;99498;-64
2023/12/11 13:19:14;;;;;;;12.88;2.38;;;;;;;;;;5017232;28;98907;-63
2023/12/11 13:21:41;;;;;;;13.60;2.50;;;;;;;;;;5021327;28;99677;-63
2023/12/11 13:24:08;;;;;;;12.63;2.47;;;;;;;;;;5018837;28;98497;-65
2023/12/11 13:26:34;;;;;;;11.65;2.45;;;;;;;;;;5016741;28;100816;-63
2023/12/11 13:29:00;;;;;;;23.92;2.95;;;;;;;;;;5019718;28;98726;-63
2023/12/11 13:31:27;;;;;;;12.25;2.67;;;;;;;;;;5013594;28;98555;-62
2023/12/11 13:33:53;;;;;;;10.73;2.65;;;;;;;;;;5017055;28;99213;-62
2023/12/11 13:36:20;;;;;;;10.50;2.45;;;;;;;;;;5005741;28;100232;-63
2023/12/11 13:38:46;;;;;;;15.35;2.78;;;;;;;;;;5015895;28;98584;-63
2023/12/11 13:41:13;;;;;;;13.40;2.13;;;;;;;;;;5020830;27;99161;-63
2023/12/11 13:43:40;;;;;;;11.38;1.88;;;;;;;;;;5011514;28;98519;-63
2023/12/11 13:46:06;;;;;;;15.32;2.05;;;;;;;;;;5017163;27;98661;-63
2023/12/11 13:48:33;;;;;;;14.50;2.40;;;;;;;;;;5014371;27;99476;-64
2023/12/11 13:51:00;;;;;;;6.30;1.90;;;;;;;;;;5012443;28;100110;-61
2023/12/11 13:53:26;;;;;;;11.88;2.05;;;;;;;;;;5016883;27;99117;-63
2023/12/11 13:55:53;;;;;;;17.67;2.30;;;;;;;;;;5011314;28;100098;-63
2023/12/11 13:58:19;;;;;;;11.57;2.35;;;;;;;;;;5019412;28;98644;-64
2023/12/11 14:00:45;;;;;;;12.98;2.50;;;;;;;;;;5012075;27;99391;-64
2023/12/11 14:03:12;;;;;;;9.82;1.88;;;;;;;;;;5015396;27;99761;-63
2023/12/11 14:05:38;;;;;;;22.25;2.40;;;;;;;;;;5013857;28;99456;-69
2023/12/11 14:08:05;;;;;;;11.50;2.72;;;;;;;;;;5017437;28;100495;-63
2023/12/11 14:10:33;;;;;;;11.82;1.98;;;;;;;;;;5020181;27;101620;-65
2023/12/11 14:12:59;;;;;;;17.30;3.03;;;;;;;;;;5013856;28;99246;-64
2023/12/11 14:15:27;;;;;;;13.77;1.98;;;;;;;;;;5017082;28;99551;-64
2023/12/11 14:17:54;;;;;;;16.02;2.15;;;;;;;;;;5014653;28;98701;-65
2023/12/11 14:20:20;;;;;;;12.60;2.15;;;;;;;;;;5016382;28;98536;-64
2023/12/11 14:22:46;;;;;;;14.75;2.05;;;;;;;;;;5016053;28;100613;-63
2023/12/11 14:25:14;;;;;;;11.77;2.03;;;;;;;;;;5018887;28;99351;-64
2023/12/11 14:27:41;;;;;;;10.73;2.33;;;;;;;;;;5015324;28;99461;-64
2023/12/11 14:30:07;;;;;;;9.80;1.77;;;;;;;;;;5015993;28;98572;-63